sensor_id;sensor_type;location;lat;lon;timestamp;P1;durP1;ratioP1;P2;durP2;ratioP2
65971;SDS011;52726;48.852;9.152;2022-12-18T00:01:21;15.50;;;7.00;;
65971;SDS011;52726;48.852;9.152;2022-12-18T00:04:05;10.03;;;5.33;;
65971;SDS011;52726;48.852;9.152;2022-12-18T00:06:32;11.30;;;5.43;;
65971;SDS011;52726;48.852;9.152;2022-12-18T00:08:59;8.87;;;5.70;;
65971;SDS011;52726;48.852;9.152;2022-12-18T00:11:26;5.87;;;5.33;;
65971;SDS011;52726;48.852;9.152;2022-12-18T00:13:54;9.10;;;7.23;;
65971;SDS011;52726;48.852;9.152;2022-12-18T00:16:22;13.63;;;6.57;;
65971;SDS011;52726;48.852;9.152;2022-12-18T00:18:51;8.30;;;6.57;;
65971;SDS011;52726;48.852;9.152;2022-12-18T00:21:17;13.37;;;5.17;;
65971;SDS011;52726;48.852;9.152;2022-12-18T00:23:45;16.77;;;8.37;;
65971;SDS011;52726;48.852;9.152;2022-12-18T00:26:15;8.27;;;7.03;;
65971;SDS011;52726;48.852;9.152;2022-12-18T00:28:46;8.73;;;6.00;;
65971;SDS011;52726;48.852;9.152;2022-12-18T00:31:13;16.67;;;7.57;;
65971;SDS011;52726;48.852;9.152;2022-12-18T00:33:40;9.43;;;7.00;;
65971;SDS011;52726;48.852;9.152;2022-12-18T00:36:15;8.67;;;4.87;;
65971;SDS011;52726;48.852;9.152;2022-12-18T00:38:42;9.77;;;6.27;;
65971;SDS011;52726;48.852;9.152;2022-12-18T00:41:09;13.57;;;6.57;;
65971;SDS011;52726;48.852;9.152;2022-12-18T00:43:35;7.40;;;5.17;;
65971;SDS011;52726;48.852;9.152;2022-12-18T00:46:01;13.67;;;7.50;;
65971;SDS011;52726;48.852;9.152;2022-12-18T00:48:27;9.67;;;5.77;;
65971;SDS011;52726;48.852;9.152;2022-12-18T00:50:52;10.53;;;7.20;;
65971;SDS011;52726;48.852;9.152;2022-12-18T00:53:18;17.50;;;6.17;;
65971;SDS011;52726;48.852;9.152;2022-12-18T00:55:46;6.43;;;5.83;;
65971;SDS011;52726;48.852;9.152;2022-12-18T00:58:13;13.47;;;6.13;;
65971;SDS011;52726;48.852;9.152;2022-12-18T01:00:40;12.03;;;6.90;;
65971;SDS011;52726;48.852;9.152;2022-12-18T01:03:06;19.17;;;6.83;;
65971;SDS011;52726;48.852;9.152;2022-12-18T01:05:31;7.83;;;7.07;;
65971;SDS011;52726;48.852;9.152;2022-12-18T01:07:57;16.80;;;6.07;;
65971;SDS011;52726;48.852;9.152;2022-12-18T01:10:23;12.87;;;8.17;;
65971;SDS011;52726;48.852;9.152;2022-12-18T01:12:49;5.90;;;5.10;;
65971;SDS011;52726;48.852;9.152;2022-12-18T01:15:15;13.73;;;6.30;;
65971;SDS011;52726;48.852;9.152;2022-12-18T01:17:41;15.10;;;7.40;;
65971;SDS011;52726;48.852;9.152;2022-12-18T01:20:06;10.90;;;8.17;;
65971;SDS011;52726;48.852;9.152;2022-12-18T01:22:33;9.70;;;7.17;;
65971;SDS011;52726;48.852;9.152;2022-12-18T01:24:59;11.10;;;6.97;;
65971;SDS011;52726;48.852;9.152;2022-12-18T01:27:24;8.90;;;6.10;;
65971;SDS011;52726;48.852;9.152;2022-12-18T01:29:50;10.20;;;4.77;;
65971;SDS011;52726;48.852;9.152;2022-12-18T01:32:15;11.23;;;6.83;;
65971;SDS011;52726;48.852;9.152;2022-12-18T01:34:44;20.47;;;6.33;;
65971;SDS011;52726;48.852;9.152;2022-12-18T01:37:10;13.20;;;5.20;;
65971;SDS011;52726;48.852;9.152;2022-12-18T01:39:38;11.93;;;5.07;;
65971;SDS011;52726;48.852;9.152;2022-12-18T01:42:05;8.53;;;6.07;;
65971;SDS011;52726;48.852;9.152;2022-12-18T01:44:56;7.47;;;5.60;;
65971;SDS011;52726;48.852;9.152;2022-12-18T01:50:01;9.47;;;5.67;;
65971;SDS011;52726;48.852;9.152;2022-12-18T01:52:31;15.47;;;5.17;;
65971;SDS011;52726;48.852;9.152;2022-12-18T01:54:57;10.77;;;6.53;;
65971;SDS011;52726;48.852;9.152;2022-12-18T01:57:24;12.33;;;6.90;;
65971;SDS011;52726;48.852;9.152;2022-12-18T01:59:51;15.80;;;8.07;;
65971;SDS011;52726;48.852;9.152;2022-12-18T02:02:19;13.30;;;6.07;;
65971;SDS011;52726;48.852;9.152;2022-12-18T02:04:45;8.43;;;6.10;;
65971;SDS011;52726;48.852;9.152;2022-12-18T02:10:20;11.10;;;7.97;;
65971;SDS011;52726;48.852;9.152;2022-12-18T02:15:27;16.03;;;6.50;;
65971;SDS011;52726;48.852;9.152;2022-12-18T02:18:07;14.88;;;6.32;;
65971;SDS011;52726;48.852;9.152;2022-12-18T02:20:42;13.77;;;6.00;;
65971;SDS011;52726;48.852;9.152;2022-12-18T02:23:56;7.03;;;5.73;;
65971;SDS011;52726;48.852;9.152;2022-12-18T02:26:20;4.53;;;4.13;;
65971;SDS011;52726;48.852;9.152;2022-12-18T02:28:56;11.80;;;5.87;;
65971;SDS011;52726;48.852;9.152;2022-12-18T02:31:26;7.37;;;6.30;;
65971;SDS011;52726;48.852;9.152;2022-12-18T02:33:55;11.33;;;6.70;;
65971;SDS011;52726;48.852;9.152;2022-12-18T02:36:23;6.97;;;5.97;;
65971;SDS011;52726;48.852;9.152;2022-12-18T02:38:52;12.10;;;6.60;;
65971;SDS011;52726;48.852;9.152;2022-12-18T02:41:19;8.70;;;5.50;;
65971;SDS011;52726;48.852;9.152;2022-12-18T02:43:47;9.40;;;5.97;;
65971;SDS011;52726;48.852;9.152;2022-12-18T02:49:01;13.07;;;6.40;;
65971;SDS011;52726;48.852;9.152;2022-12-18T02:51:37;16.10;;;10.40;;
65971;SDS011;52726;48.852;9.152;2022-12-18T02:54:16;14.10;;;7.23;;
65971;SDS011;52726;48.852;9.152;2022-12-18T02:56:54;8.05;;;6.38;;
65971;SDS011;52726;48.852;9.152;2022-12-18T02:59:30;6.30;;;3.60;;
65971;SDS011;52726;48.852;9.152;2022-12-18T03:02:15;8.55;;;5.45;;
65971;SDS011;52726;48.852;9.152;2022-12-18T03:04:51;20.70;;;7.43;;
65971;SDS011;52726;48.852;9.152;2022-12-18T03:07:33;15.73;;;8.47;;
65971;SDS011;52726;48.852;9.152;2022-12-18T03:10:13;10.68;;;7.13;;
65971;SDS011;52726;48.852;9.152;2022-12-18T03:12:43;23.65;;;7.20;;
65971;SDS011;52726;48.852;9.152;2022-12-18T03:15:18;7.85;;;6.07;;
65971;SDS011;52726;48.852;9.152;2022-12-18T03:17:55;10.45;;;6.00;;
65971;SDS011;52726;48.852;9.152;2022-12-18T03:20:24;10.98;;;6.60;;
65971;SDS011;52726;48.852;9.152;2022-12-18T03:22:53;11.43;;;7.03;;
65971;SDS011;52726;48.852;9.152;2022-12-18T03:25:24;10.63;;;5.45;;
65971;SDS011;52726;48.852;9.152;2022-12-18T03:27:53;8.90;;;5.22;;
65971;SDS011;52726;48.852;9.152;2022-12-18T03:30:21;11.00;;;4.97;;
65971;SDS011;52726;48.852;9.152;2022-12-18T03:32:47;6.03;;;4.88;;
65971;SDS011;52726;48.852;9.152;2022-12-18T03:35:19;7.32;;;4.50;;
65971;SDS011;52726;48.852;9.152;2022-12-18T03:37:49;14.75;;;5.15;;
65971;SDS011;52726;48.852;9.152;2022-12-18T03:40:14;16.10;;;7.43;;
65971;SDS011;52726;48.852;9.152;2022-12-18T03:42:53;9.80;;;7.15;;
65971;SDS011;52726;48.852;9.152;2022-12-18T03:45:26;9.15;;;5.65;;
65971;SDS011;52726;48.852;9.152;2022-12-18T03:51:05;11.93;;;7.63;;
65971;SDS011;52726;48.852;9.152;2022-12-18T03:53:55;13.82;;;5.63;;
65971;SDS011;52726;48.852;9.152;2022-12-18T03:56:25;14.00;;;6.90;;
65971;SDS011;52726;48.852;9.152;2022-12-18T03:58:54;10.68;;;6.47;;
65971;SDS011;52726;48.852;9.152;2022-12-18T04:01:22;15.13;;;6.88;;
65971;SDS011;52726;48.852;9.152;2022-12-18T04:03:53;12.32;;;7.28;;
65971;SDS011;52726;48.852;9.152;2022-12-18T04:06:20;11.23;;;5.25;;
65971;SDS011;52726;48.852;9.152;2022-12-18T04:08:46;19.95;;;7.90;;
65971;SDS011;52726;48.852;9.152;2022-12-18T04:11:12;6.05;;;4.05;;
65971;SDS011;52726;48.852;9.152;2022-12-18T04:13:38;13.50;;;7.28;;
65971;SDS011;52726;48.852;9.152;2022-12-18T04:16:04;6.03;;;5.47;;
65971;SDS011;52726;48.852;9.152;2022-12-18T04:18:30;12.98;;;7.97;;
65971;SDS011;52726;48.852;9.152;2022-12-18T04:20:55;14.68;;;5.47;;
65971;SDS011;52726;48.852;9.152;2022-12-18T04:23:21;9.35;;;5.25;;
65971;SDS011;52726;48.852;9.152;2022-12-18T04:25:46;6.53;;;5.33;;
65971;SDS011;52726;48.852;9.152;2022-12-18T04:28:12;11.48;;;8.35;;
65971;SDS011;52726;48.852;9.152;2022-12-18T04:30:38;10.40;;;6.63;;
65971;SDS011;52726;48.852;9.152;2022-12-18T04:33:03;11.93;;;6.80;;
65971;SDS011;52726;48.852;9.152;2022-12-18T04:35:29;15.40;;;8.65;;
65971;SDS011;52726;48.852;9.152;2022-12-18T04:37:55;10.93;;;8.23;;
65971;SDS011;52726;48.852;9.152;2022-12-18T04:40:20;15.17;;;7.47;;
65971;SDS011;52726;48.852;9.152;2022-12-18T04:42:46;11.63;;;5.95;;
65971;SDS011;52726;48.852;9.152;2022-12-18T04:45:11;13.20;;;5.88;;
65971;SDS011;52726;48.852;9.152;2022-12-18T04:47:36;8.30;;;5.93;;
65971;SDS011;52726;48.852;9.152;2022-12-18T04:50:02;20.53;;;6.53;;
65971;SDS011;52726;48.852;9.152;2022-12-18T04:52:28;7.63;;;5.45;;
65971;SDS011;52726;48.852;9.152;2022-12-18T04:54:53;7.85;;;5.53;;
65971;SDS011;52726;48.852;9.152;2022-12-18T04:57:18;21.80;;;6.73;;
65971;SDS011;52726;48.852;9.152;2022-12-18T04:59:44;8.43;;;6.22;;
65971;SDS011;52726;48.852;9.152;2022-12-18T05:02:10;10.27;;;6.53;;
65971;SDS011;52726;48.852;9.152;2022-12-18T05:04:35;6.38;;;5.75;;
65971;SDS011;52726;48.852;9.152;2022-12-18T05:07:01;7.25;;;5.22;;
65971;SDS011;52726;48.852;9.152;2022-12-18T05:09:26;6.53;;;5.70;;
65971;SDS011;52726;48.852;9.152;2022-12-18T05:11:51;11.60;;;6.63;;
65971;SDS011;52726;48.852;9.152;2022-12-18T05:14:17;11.20;;;6.10;;
65971;SDS011;52726;48.852;9.152;2022-12-18T05:16:42;26.15;;;7.20;;
65971;SDS011;52726;48.852;9.152;2022-12-18T05:19:07;10.33;;;5.20;;
65971;SDS011;52726;48.852;9.152;2022-12-18T05:21:33;6.60;;;2.63;;
65971;SDS011;52726;48.852;9.152;2022-12-18T05:23:58;13.03;;;5.83;;
65971;SDS011;52726;48.852;9.152;2022-12-18T05:26:24;18.43;;;8.60;;
65971;SDS011;52726;48.852;9.152;2022-12-18T05:28:49;29.60;;;10.60;;
65971;SDS011;52726;48.852;9.152;2022-12-18T05:31:15;25.20;;;7.00;;
65971;SDS011;52726;48.852;9.152;2022-12-18T05:33:40;23.43;;;7.30;;
65971;SDS011;52726;48.852;9.152;2022-12-18T05:36:06;12.70;;;7.77;;
65971;SDS011;52726;48.852;9.152;2022-12-18T05:38:33;11.07;;;5.87;;
65971;SDS011;52726;48.852;9.152;2022-12-18T05:41:00;7.60;;;5.00;;
65971;SDS011;52726;48.852;9.152;2022-12-18T05:43:27;10.03;;;6.00;;
65971;SDS011;52726;48.852;9.152;2022-12-18T05:45:53;15.37;;;7.13;;
65971;SDS011;52726;48.852;9.152;2022-12-18T05:48:19;15.50;;;9.60;;
65971;SDS011;52726;48.852;9.152;2022-12-18T05:50:45;10.13;;;6.07;;
65971;SDS011;52726;48.852;9.152;2022-12-18T05:53:12;11.77;;;5.60;;
65971;SDS011;52726;48.852;9.152;2022-12-18T05:55:42;14.17;;;8.13;;
65971;SDS011;52726;48.852;9.152;2022-12-18T05:58:08;16.97;;;8.70;;
65971;SDS011;52726;48.852;9.152;2022-12-18T06:00:39;14.23;;;8.57;;
65971;SDS011;52726;48.852;9.152;2022-12-18T06:03:06;10.53;;;7.00;;
65971;SDS011;52726;48.852;9.152;2022-12-18T06:05:36;18.00;;;7.27;;
65971;SDS011;52726;48.852;9.152;2022-12-18T06:08:05;13.33;;;9.40;;
65971;SDS011;52726;48.852;9.152;2022-12-18T06:10:31;8.07;;;5.37;;
65971;SDS011;52726;48.852;9.152;2022-12-18T06:12:57;12.83;;;6.00;;
65971;SDS011;52726;48.852;9.152;2022-12-18T06:15:22;6.97;;;4.43;;
65971;SDS011;52726;48.852;9.152;2022-12-18T06:17:48;8.97;;;5.40;;
65971;SDS011;52726;48.852;9.152;2022-12-18T06:20:13;12.27;;;6.37;;
65971;SDS011;52726;48.852;9.152;2022-12-18T06:22:38;9.37;;;4.87;;
65971;SDS011;52726;48.852;9.152;2022-12-18T06:25:04;5.40;;;4.80;;
65971;SDS011;52726;48.852;9.152;2022-12-18T06:27:31;11.90;;;6.67;;
65971;SDS011;52726;48.852;9.152;2022-12-18T06:29:58;8.13;;;6.93;;
65971;SDS011;52726;48.852;9.152;2022-12-18T06:32:23;6.47;;;5.07;;
65971;SDS011;52726;48.852;9.152;2022-12-18T06:34:49;25.50;;;9.80;;
65971;SDS011;52726;48.852;9.152;2022-12-18T06:37:14;9.67;;;4.30;;
65971;SDS011;52726;48.852;9.152;2022-12-18T06:39:40;11.30;;;5.73;;
65971;SDS011;52726;48.852;9.152;2022-12-18T06:42:05;9.47;;;5.23;;
65971;SDS011;52726;48.852;9.152;2022-12-18T06:44:30;10.37;;;5.67;;
65971;SDS011;52726;48.852;9.152;2022-12-18T06:46:56;8.48;;;4.60;;
65971;SDS011;52726;48.852;9.152;2022-12-18T06:49:21;21.10;;;6.67;;
65971;SDS011;52726;48.852;9.152;2022-12-18T06:51:46;8.43;;;5.83;;
65971;SDS011;52726;48.852;9.152;2022-12-18T06:54:12;13.40;;;6.03;;
65971;SDS011;52726;48.852;9.152;2022-12-18T06:56:37;10.77;;;5.70;;
65971;SDS011;52726;48.852;9.152;2022-12-18T06:59:03;5.47;;;4.87;;
65971;SDS011;52726;48.852;9.152;2022-12-18T07:01:28;6.03;;;4.73;;
65971;SDS011;52726;48.852;9.152;2022-12-18T07:03:54;7.90;;;4.27;;
65971;SDS011;52726;48.852;9.152;2022-12-18T07:06:21;7.33;;;4.67;;
65971;SDS011;52726;48.852;9.152;2022-12-18T07:08:48;4.87;;;3.87;;
65971;SDS011;52726;48.852;9.152;2022-12-18T07:11:14;9.18;;;4.47;;
65971;SDS011;52726;48.852;9.152;2022-12-18T07:13:40;9.32;;;6.30;;
65971;SDS011;52726;48.852;9.152;2022-12-18T07:16:09;6.50;;;5.83;;
65971;SDS011;52726;48.852;9.152;2022-12-18T07:18:40;23.77;;;6.37;;
65971;SDS011;52726;48.852;9.152;2022-12-18T07:21:06;7.97;;;5.00;;
65971;SDS011;52726;48.852;9.152;2022-12-18T07:23:33;7.57;;;6.00;;
65971;SDS011;52726;48.852;9.152;2022-12-18T07:26:05;17.03;;;6.07;;
65971;SDS011;52726;48.852;9.152;2022-12-18T07:28:33;5.63;;;4.00;;
65971;SDS011;52726;48.852;9.152;2022-12-18T07:31:03;8.23;;;5.67;;
65971;SDS011;52726;48.852;9.152;2022-12-18T07:33:30;10.85;;;6.53;;
65971;SDS011;52726;48.852;9.152;2022-12-18T07:35:58;5.93;;;5.07;;
65971;SDS011;52726;48.852;9.152;2022-12-18T07:38:24;10.95;;;6.18;;
65971;SDS011;52726;48.852;9.152;2022-12-18T07:40:49;8.77;;;4.37;;
65971;SDS011;52726;48.852;9.152;2022-12-18T07:43:15;10.53;;;4.87;;
65971;SDS011;52726;48.852;9.152;2022-12-18T07:45:41;13.27;;;6.60;;
65971;SDS011;52726;48.852;9.152;2022-12-18T07:48:07;7.17;;;6.47;;
65971;SDS011;52726;48.852;9.152;2022-12-18T07:50:33;9.63;;;5.43;;
65971;SDS011;52726;48.852;9.152;2022-12-18T07:52:58;12.20;;;8.02;;
65971;SDS011;52726;48.852;9.152;2022-12-18T07:55:28;11.60;;;6.23;;
65971;SDS011;52726;48.852;9.152;2022-12-18T07:57:53;12.50;;;9.10;;
65971;SDS011;52726;48.852;9.152;2022-12-18T08:00:19;13.93;;;6.77;;
65971;SDS011;52726;48.852;9.152;2022-12-18T08:02:44;16.08;;;6.65;;
65971;SDS011;52726;48.852;9.152;2022-12-18T08:05:10;8.47;;;6.30;;
65971;SDS011;52726;48.852;9.152;2022-12-18T08:07:35;11.10;;;6.37;;
65971;SDS011;52726;48.852;9.152;2022-12-18T08:10:00;7.57;;;5.03;;
65971;SDS011;52726;48.852;9.152;2022-12-18T08:12:26;8.87;;;5.50;;
65971;SDS011;52726;48.852;9.152;2022-12-18T08:14:51;6.43;;;5.53;;
65971;SDS011;52726;48.852;9.152;2022-12-18T08:17:16;16.90;;;7.73;;
65971;SDS011;52726;48.852;9.152;2022-12-18T08:19:42;8.53;;;3.90;;
65971;SDS011;52726;48.852;9.152;2022-12-18T08:22:07;17.00;;;6.60;;
65971;SDS011;52726;48.852;9.152;2022-12-18T08:24:32;13.18;;;9.00;;
65971;SDS011;52726;48.852;9.152;2022-12-18T08:26:58;8.38;;;5.47;;
65971;SDS011;52726;48.852;9.152;2022-12-18T08:29:23;11.82;;;6.85;;
65971;SDS011;52726;48.852;9.152;2022-12-18T08:31:48;7.35;;;5.43;;
65971;SDS011;52726;48.852;9.152;2022-12-18T08:34:14;19.50;;;8.70;;
65971;SDS011;52726;48.852;9.152;2022-12-18T08:36:39;14.35;;;6.50;;
65971;SDS011;52726;48.852;9.152;2022-12-18T08:39:05;13.43;;;7.18;;
65971;SDS011;52726;48.852;9.152;2022-12-18T08:41:30;18.33;;;6.30;;
65971;SDS011;52726;48.852;9.152;2022-12-18T08:43:55;15.25;;;7.47;;
65971;SDS011;52726;48.852;9.152;2022-12-18T08:46:40;11.10;;;5.40;;
65971;SDS011;52726;48.852;9.152;2022-12-18T08:49:08;14.88;;;7.00;;
65971;SDS011;52726;48.852;9.152;2022-12-18T08:51:34;20.08;;;6.47;;
65971;SDS011;52726;48.852;9.152;2022-12-18T08:54:00;8.50;;;5.47;;
65971;SDS011;52726;48.852;9.152;2022-12-18T08:56:26;11.52;;;5.82;;
65971;SDS011;52726;48.852;9.152;2022-12-18T08:58:52;8.88;;;5.40;;
65971;SDS011;52726;48.852;9.152;2022-12-18T09:01:18;13.68;;;6.88;;
65971;SDS011;52726;48.852;9.152;2022-12-18T09:03:43;11.38;;;7.18;;
65971;SDS011;52726;48.852;9.152;2022-12-18T09:06:09;23.58;;;8.85;;
65971;SDS011;52726;48.852;9.152;2022-12-18T09:08:38;12.73;;;6.63;;
65971;SDS011;52726;48.852;9.152;2022-12-18T09:11:03;6.63;;;5.10;;
65971;SDS011;52726;48.852;9.152;2022-12-18T09:13:28;16.90;;;8.00;;
65971;SDS011;52726;48.852;9.152;2022-12-18T09:15:54;16.38;;;7.88;;
65971;SDS011;52726;48.852;9.152;2022-12-18T09:18:21;20.63;;;8.57;;
65971;SDS011;52726;48.852;9.152;2022-12-18T09:20:47;17.10;;;9.05;;
65971;SDS011;52726;48.852;9.152;2022-12-18T09:23:13;10.45;;;6.95;;
65971;SDS011;52726;48.852;9.152;2022-12-18T09:25:39;10.80;;;7.68;;
65971;SDS011;52726;48.852;9.152;2022-12-18T09:28:06;14.18;;;7.00;;
65971;SDS011;52726;48.852;9.152;2022-12-18T09:30:39;12.43;;;8.85;;
65971;SDS011;52726;48.852;9.152;2022-12-18T09:33:05;13.95;;;8.07;;
65971;SDS011;52726;48.852;9.152;2022-12-18T09:35:31;7.50;;;4.95;;
65971;SDS011;52726;48.852;9.152;2022-12-18T09:37:56;7.45;;;5.25;;
65971;SDS011;52726;48.852;9.152;2022-12-18T09:40:22;17.60;;;10.45;;
65971;SDS011;52726;48.852;9.152;2022-12-18T09:42:59;14.38;;;7.22;;
65971;SDS011;52726;48.852;9.152;2022-12-18T09:45:35;15.48;;;5.88;;
65971;SDS011;52726;48.852;9.152;2022-12-18T09:48:08;13.93;;;8.55;;
65971;SDS011;52726;48.852;9.152;2022-12-18T09:50:44;17.17;;;9.25;;
65971;SDS011;52726;48.852;9.152;2022-12-18T09:53:12;22.27;;;9.82;;
65971;SDS011;52726;48.852;9.152;2022-12-18T09:55:45;18.05;;;7.65;;
65971;SDS011;52726;48.852;9.152;2022-12-18T10:00:52;25.88;;;10.77;;
65971;SDS011;52726;48.852;9.152;2022-12-18T10:03:18;21.58;;;9.95;;
65971;SDS011;52726;48.852;9.152;2022-12-18T10:08:41;17.33;;;9.10;;
65971;SDS011;52726;48.852;9.152;2022-12-18T10:11:20;13.80;;;7.25;;
65971;SDS011;52726;48.852;9.152;2022-12-18T10:24:46;25.88;;;10.65;;
65971;SDS011;52726;48.852;9.152;2022-12-18T10:27:23;23.23;;;11.77;;
65971;SDS011;52726;48.852;9.152;2022-12-18T10:29:53;20.67;;;7.22;;
65971;SDS011;52726;48.852;9.152;2022-12-18T10:32:21;7.63;;;5.35;;
65971;SDS011;52726;48.852;9.152;2022-12-18T10:34:49;15.38;;;7.40;;
65971;SDS011;52726;48.852;9.152;2022-12-18T10:37:23;16.00;;;7.50;;
65971;SDS011;52726;48.852;9.152;2022-12-18T10:42:40;16.05;;;7.57;;
65971;SDS011;52726;48.852;9.152;2022-12-18T10:45:14;16.30;;;7.65;;
65971;SDS011;52726;48.852;9.152;2022-12-18T10:47:47;17.73;;;8.93;;
65971;SDS011;52726;48.852;9.152;2022-12-18T10:50:24;12.65;;;6.80;;
65971;SDS011;52726;48.852;9.152;2022-12-18T10:53:00;18.15;;;8.88;;
65971;SDS011;52726;48.852;9.152;2022-12-18T10:55:32;24.50;;;7.05;;
65971;SDS011;52726;48.852;9.152;2022-12-18T11:00:50;14.10;;;6.95;;
65971;SDS011;52726;48.852;9.152;2022-12-18T11:03:37;12.23;;;4.70;;
65971;SDS011;52726;48.852;9.152;2022-12-18T11:08:39;16.00;;;7.15;;
65971;SDS011;52726;48.852;9.152;2022-12-18T11:11:07;15.00;;;8.35;;
65971;SDS011;52726;48.852;9.152;2022-12-18T11:13:50;16.33;;;7.47;;
65971;SDS011;52726;48.852;9.152;2022-12-18T11:16:34;12.52;;;6.05;;
65971;SDS011;52726;48.852;9.152;2022-12-18T11:19:17;27.27;;;11.35;;
65971;SDS011;52726;48.852;9.152;2022-12-18T11:21:47;21.92;;;7.75;;
65971;SDS011;52726;48.852;9.152;2022-12-18T11:24:20;17.45;;;6.70;;
65971;SDS011;52726;48.852;9.152;2022-12-18T11:26:54;14.70;;;7.87;;
65971;SDS011;52726;48.852;9.152;2022-12-18T11:29:28;21.02;;;9.32;;
65971;SDS011;52726;48.852;9.152;2022-12-18T11:35:21;17.50;;;6.43;;
65971;SDS011;52726;48.852;9.152;2022-12-18T11:37:50;25.23;;;10.02;;
65971;SDS011;52726;48.852;9.152;2022-12-18T11:40:41;20.45;;;8.38;;
65971;SDS011;52726;48.852;9.152;2022-12-18T11:43:13;12.70;;;6.82;;
65971;SDS011;52726;48.852;9.152;2022-12-18T11:45:41;22.40;;;9.25;;
65971;SDS011;52726;48.852;9.152;2022-12-18T11:50:52;14.55;;;8.52;;
65971;SDS011;52726;48.852;9.152;2022-12-18T11:53:19;16.80;;;9.30;;
65971;SDS011;52726;48.852;9.152;2022-12-18T12:01:18;27.23;;;8.48;;
65971;SDS011;52726;48.852;9.152;2022-12-18T12:04:04;10.68;;;5.65;;
65971;SDS011;52726;48.852;9.152;2022-12-18T12:09:55;18.92;;;8.05;;
65971;SDS011;52726;48.852;9.152;2022-12-18T12:17:56;21.45;;;4.65;;
65971;SDS011;52726;48.852;9.152;2022-12-18T12:31:32;20.33;;;9.88;;
65971;SDS011;52726;48.852;9.152;2022-12-18T12:37:11;21.17;;;10.95;;
65971;SDS011;52726;48.852;9.152;2022-12-18T12:40:02;14.50;;;7.57;;
65971;SDS011;52726;48.852;9.152;2022-12-18T12:45:57;15.05;;;7.47;;
65971;SDS011;52726;48.852;9.152;2022-12-18T12:51:03;15.63;;;8.95;;
65971;SDS011;52726;48.852;9.152;2022-12-18T12:53:35;25.08;;;9.82;;
65971;SDS011;52726;48.852;9.152;2022-12-18T12:56:03;18.38;;;9.57;;
65971;SDS011;52726;48.852;9.152;2022-12-18T12:58:39;19.40;;;8.90;;
65971;SDS011;52726;48.852;9.152;2022-12-18T13:01:17;13.70;;;8.43;;
65971;SDS011;52726;48.852;9.152;2022-12-18T13:06:37;15.10;;;8.40;;
65971;SDS011;52726;48.852;9.152;2022-12-18T13:09:08;23.05;;;8.88;;
65971;SDS011;52726;48.852;9.152;2022-12-18T13:11:35;28.63;;;9.88;;
65971;SDS011;52726;48.852;9.152;2022-12-18T13:14:34;24.05;;;8.85;;
65971;SDS011;52726;48.852;9.152;2022-12-18T13:19:40;18.60;;;8.57;;
65971;SDS011;52726;48.852;9.152;2022-12-18T13:22:51;25.10;;;9.68;;
65971;SDS011;52726;48.852;9.152;2022-12-18T13:24:56;26.00;;;10.52;;
65971;SDS011;52726;48.852;9.152;2022-12-18T13:38:23;15.80;;;8.52;;
65971;SDS011;52726;48.852;9.152;2022-12-18T13:43:53;15.75;;;6.80;;
65971;SDS011;52726;48.852;9.152;2022-12-18T13:46:29;22.30;;;9.27;;
65971;SDS011;52726;48.852;9.152;2022-12-18T13:51:46;17.40;;;8.93;;
65971;SDS011;52726;48.852;9.152;2022-12-18T13:54:18;16.40;;;7.63;;
65971;SDS011;52726;48.852;9.152;2022-12-18T13:56:51;14.93;;;7.82;;
65971;SDS011;52726;48.852;9.152;2022-12-18T14:01:57;22.40;;;8.32;;
65971;SDS011;52726;48.852;9.152;2022-12-18T14:06:57;24.38;;;10.30;;
65971;SDS011;52726;48.852;9.152;2022-12-18T14:09:37;23.17;;;9.80;;
65971;SDS011;52726;48.852;9.152;2022-12-18T14:12:17;11.27;;;5.88;;
65971;SDS011;52726;48.852;9.152;2022-12-18T14:15:06;13.63;;;6.35;;
65971;SDS011;52726;48.852;9.152;2022-12-18T14:17:45;18.58;;;8.30;;
65971;SDS011;52726;48.852;9.152;2022-12-18T14:20:15;21.35;;;7.55;;
65971;SDS011;52726;48.852;9.152;2022-12-18T14:22:43;20.95;;;9.80;;
65971;SDS011;52726;48.852;9.152;2022-12-18T14:25:26;20.23;;;9.43;;
65971;SDS011;52726;48.852;9.152;2022-12-18T14:30:33;20.30;;;8.95;;
65971;SDS011;52726;48.852;9.152;2022-12-18T14:33:02;32.25;;;8.82;;
65971;SDS011;52726;48.852;9.152;2022-12-18T14:35:40;20.85;;;9.20;;
65971;SDS011;52726;48.852;9.152;2022-12-18T14:40:54;22.05;;;9.18;;
65971;SDS011;52726;48.852;9.152;2022-12-18T14:43:23;17.63;;;7.88;;
65971;SDS011;52726;48.852;9.152;2022-12-18T14:45:49;23.70;;;10.27;;
65971;SDS011;52726;48.852;9.152;2022-12-18T14:48:17;15.25;;;8.88;;
65971;SDS011;52726;48.852;9.152;2022-12-18T14:50:43;18.10;;;8.52;;
65971;SDS011;52726;48.852;9.152;2022-12-18T14:56:00;18.65;;;10.25;;
65971;SDS011;52726;48.852;9.152;2022-12-18T14:58:35;18.95;;;10.32;;
65971;SDS011;52726;48.852;9.152;2022-12-18T15:01:00;19.98;;;9.52;;
65971;SDS011;52726;48.852;9.152;2022-12-18T15:03:25;20.27;;;8.73;;
65971;SDS011;52726;48.852;9.152;2022-12-18T15:05:51;17.52;;;9.02;;
65971;SDS011;52726;48.852;9.152;2022-12-18T15:08:30;17.73;;;7.35;;
65971;SDS011;52726;48.852;9.152;2022-12-18T15:11:22;16.65;;;9.02;;
65971;SDS011;52726;48.852;9.152;2022-12-18T15:13:59;12.80;;;8.43;;
65971;SDS011;52726;48.852;9.152;2022-12-18T15:16:49;13.00;;;7.70;;
65971;SDS011;52726;48.852;9.152;2022-12-18T15:19:19;20.98;;;7.38;;
65971;SDS011;52726;48.852;9.152;2022-12-18T15:21:46;18.63;;;8.82;;
65971;SDS011;52726;48.852;9.152;2022-12-18T15:24:18;23.42;;;9.02;;
65971;SDS011;52726;48.852;9.152;2022-12-18T15:26:49;19.30;;;9.30;;
65971;SDS011;52726;48.852;9.152;2022-12-18T15:29:16;17.27;;;9.23;;
65971;SDS011;52726;48.852;9.152;2022-12-18T15:31:45;19.45;;;9.95;;
65971;SDS011;52726;48.852;9.152;2022-12-18T15:34:23;18.02;;;9.75;;
65971;SDS011;52726;48.852;9.152;2022-12-18T15:36:50;19.13;;;9.48;;
65971;SDS011;52726;48.852;9.152;2022-12-18T15:39:16;28.50;;;10.45;;
65971;SDS011;52726;48.852;9.152;2022-12-18T15:41:41;21.30;;;8.65;;
65971;SDS011;52726;48.852;9.152;2022-12-18T15:44:27;19.88;;;9.73;;
65971;SDS011;52726;48.852;9.152;2022-12-18T15:46:52;27.25;;;12.02;;
65971;SDS011;52726;48.852;9.152;2022-12-18T15:49:18;21.52;;;10.77;;
65971;SDS011;52726;48.852;9.152;2022-12-18T15:51:43;18.83;;;10.52;;
65971;SDS011;52726;48.852;9.152;2022-12-18T15:54:10;24.65;;;11.40;;
65971;SDS011;52726;48.852;9.152;2022-12-18T15:56:38;22.25;;;11.00;;
65971;SDS011;52726;48.852;9.152;2022-12-18T15:59:22;19.55;;;10.82;;
65971;SDS011;52726;48.852;9.152;2022-12-18T16:01:49;27.13;;;11.02;;
65971;SDS011;52726;48.852;9.152;2022-12-18T16:04:16;23.35;;;9.75;;
65971;SDS011;52726;48.852;9.152;2022-12-18T16:06:45;19.58;;;9.55;;
65971;SDS011;52726;48.852;9.152;2022-12-18T16:09:10;23.77;;;10.27;;
65971;SDS011;52726;48.852;9.152;2022-12-18T16:11:36;15.02;;;10.07;;
65971;SDS011;52726;48.852;9.152;2022-12-18T16:16:29;26.05;;;12.75;;
65971;SDS011;52726;48.852;9.152;2022-12-18T16:18:54;21.48;;;10.52;;
65971;SDS011;52726;48.852;9.152;2022-12-18T16:21:20;32.13;;;11.45;;
65971;SDS011;52726;48.852;9.152;2022-12-18T16:23:45;31.33;;;14.23;;
65971;SDS011;52726;48.852;9.152;2022-12-18T16:26:10;25.38;;;11.68;;
65971;SDS011;52726;48.852;9.152;2022-12-18T16:28:36;23.63;;;11.10;;
65971;SDS011;52726;48.852;9.152;2022-12-18T16:31:01;32.42;;;11.55;;
65971;SDS011;52726;48.852;9.152;2022-12-18T16:33:26;26.35;;;11.48;;
65971;SDS011;52726;48.852;9.152;2022-12-18T16:35:52;28.73;;;10.95;;
65971;SDS011;52726;48.852;9.152;2022-12-18T16:38:18;23.90;;;10.93;;
65971;SDS011;52726;48.852;9.152;2022-12-18T16:40:43;15.55;;;8.90;;
65971;SDS011;52726;48.852;9.152;2022-12-18T16:43:28;21.33;;;9.50;;
65971;SDS011;52726;48.852;9.152;2022-12-18T16:45:54;14.98;;;9.45;;